Time;durP1;ratioP1;P1;durP2;ratioP2;P2;SDS_P1;SDS_P2;PMS_P1;PMS_P2;Temp;Humidity;BMP_temperature;BMP_pressure;BME280_temperature;BME280_humidity;BME280_pressure;Samples;Min_cycle;Max_cycle;Signal;HPM_P1;HPM_P2
2022/02/08 00:01:26;;;;;;;0.20;0.13;;;;;;;;;;4147138;28;20058;-62
2022/02/08 00:03:27;;;;;;;1.02;0.20;;;;;;;;;;4147753;28;20062;-60
2022/02/08 00:05:28;;;;;;;0.10;0.10;;;;;;;;;;4147461;28;20161;-59
2022/02/08 00:07:31;;;;;;;0.40;0.17;;;;;;;;;;4147354;28;20050;-60
2022/02/08 00:09:33;;;;;;;0.47;0.20;;;;;;;;;;4147710;28;20053;-60
2022/02/08 00:11:34;;;;;;;0.20;0.17;;;;;;;;;;4147558;28;20131;-59
2022/02/08 00:13:35;;;;;;;0.00;0.00;;;;;;;;;;4147523;28;20485;-59
2022/02/08 00:15:36;;;;;;;0.00;0.00;;;;;;;;;;4147601;28;20061;-60
2022/02/08 00:17:37;;;;;;;0.10;0.10;;;;;;;;;;4146785;28;20535;-60
2022/02/08 00:19:38;;;;;;;0.10;0.10;;;;;;;;;;4147601;28;20104;-59
2022/02/08 00:21:39;;;;;;;0.10;0.10;;;;;;;;;;4147162;28;20456;-59
2022/02/08 00:23:40;;;;;;;0.10;0.10;;;;;;;;;;4147263;28;20058;-60
2022/02/08 00:25:41;;;;;;;0.10;0.10;;;;;;;;;;4147041;28;20579;-60
2022/02/08 00:27:42;;;;;;;0.30;0.10;;;;;;;;;;4147534;28;20104;-60
2022/02/08 00:29:44;;;;;;;0.22;0.10;;;;;;;;;;4147039;28;20433;-59
2022/02/08 00:31:45;;;;;;;0.50;0.10;;;;;;;;;;4145414;28;20108;-60
2022/02/08 00:33:46;;;;;;;0.15;0.10;;;;;;;;;;4147245;28;20088;-59
2022/02/08 00:35:47;;;;;;;0.30;0.17;;;;;;;;;;4147058;28;20492;-60
2022/02/08 00:37:48;;;;;;;0.32;0.20;;;;;;;;;;4146149;28;20053;-59
2022/02/08 00:39:50;;;;;;;0.10;0.10;;;;;;;;;;4147035;28;20054;-60
2022/02/08 00:41:51;;;;;;;0.00;0.00;;;;;;;;;;4146845;28;20057;-59
2022/02/08 00:44:02;;;;;;;0.10;0.10;;;;;;;;;;4146973;28;20050;-60
2022/02/08 00:46:15;;;;;;;0.20;0.20;;;;;;;;;;4146498;28;20557;-60
2022/02/08 00:48:32;;;;;;;0.20;0.20;;;;;;;;;;4147330;28;20054;-59
2022/02/08 00:50:33;;;;;;;0.20;0.10;;;;;;;;;;4147158;28;20053;-60
2022/02/08 00:52:36;;;;;;;0.00;0.00;;;;;;;;;;4145664;28;20069;-59
2022/02/08 00:54:37;;;;;;;0.35;0.10;;;;;;;;;;4147018;28;20116;-60
2022/02/08 00:56:39;;;;;;;0.15;0.10;;;;;;;;;;4147576;28;20053;-60
2022/02/08 00:58:40;;;;;;;0.47;0.10;;;;;;;;;;4147179;28;20053;-59
2022/02/08 01:00:41;;;;;;;0.10;0.10;;;;;;;;;;4149271;28;20084;-61
2022/02/08 01:02:42;;;;;;;0.10;0.10;;;;;;;;;;4150154;28;20053;-60
2022/02/08 01:04:48;;;;;;;1.08;0.20;;;;;;;;;;4149275;28;20058;-59
2022/02/08 01:06:51;;;;;;;0.15;0.10;;;;;;;;;;4150331;28;20053;-60
2022/02/08 01:09:00;;;;;;;0.13;0.10;;;;;;;;;;4150049;28;20054;-61
2022/02/08 01:11:02;;;;;;;0.10;0.10;;;;;;;;;;4150341;28;20115;-59
2022/02/08 01:13:08;;;;;;;0.20;0.20;;;;;;;;;;4149982;28;20081;-59
2022/02/08 01:15:09;;;;;;;0.75;0.10;;;;;;;;;;4150044;28;20493;-60
2022/02/08 01:17:11;;;;;;;0.20;0.15;;;;;;;;;;4149585;28;20077;-60
2022/02/08 01:19:13;;;;;;;0.10;0.10;;;;;;;;;;4150072;28;20559;-60
2022/02/08 01:21:14;;;;;;;0.00;0.00;;;;;;;;;;4150023;28;20069;-59
2022/02/08 01:23:15;;;;;;;0.13;0.10;;;;;;;;;;4149925;28;20053;-59
2022/02/08 01:25:26;;;;;;;0.40;0.20;;;;;;;;;;4149795;28;20119;-59
2022/02/08 01:27:31;;;;;;;0.10;0.10;;;;;;;;;;4149705;28;20054;-59
2022/02/08 01:29:39;;;;;;;0.00;0.00;;;;;;;;;;4149962;28;20049;-60
2022/02/08 01:31:40;;;;;;;0.10;0.10;;;;;;;;;;4149412;28;20456;-59
2022/02/08 01:34:11;;;;;;;0.10;0.05;;;;;;;;;;4149876;28;20058;-60
2022/02/08 01:38:30;;;;;;;0.10;0.10;;;;;;;;;;4148401;28;20062;-60
2022/02/08 01:40:50;;;;;;;0.20;0.20;;;;;;;;;;4148484;28;20050;-59
2022/02/08 01:45:34;;;;;;;0.00;0.00;;;;;;;;;;4149781;28;20468;-59
2022/02/08 01:47:45;;;;;;;0.38;0.10;;;;;;;;;;4148965;28;20184;-58
2022/02/08 01:49:58;;;;;;;0.10;0.10;;;;;;;;;;4148205;28;20116;-60
2022/02/08 01:52:00;;;;;;;0.10;0.10;;;;;;;;;;4148114;28;20054;-60
2022/02/08 01:54:01;;;;;;;0.10;0.10;;;;;;;;;;4149499;28;20080;-60
2022/02/08 01:56:03;;;;;;;0.15;0.10;;;;;;;;;;4147979;28;20417;-59
2022/02/08 01:58:06;;;;;;;0.20;0.20;;;;;;;;;;4148356;28;20053;-60
2022/02/08 02:00:09;;;;;;;0.25;0.13;;;;;;;;;;4149711;28;20111;-60
2022/02/08 02:02:14;;;;;;;0.10;0.10;;;;;;;;;;4148960;28;20061;-60
2022/02/08 02:04:15;;;;;;;0.10;0.10;;;;;;;;;;4148094;28;20563;-62
2022/02/08 02:06:18;;;;;;;0.20;0.10;;;;;;;;;;4148180;28;20061;-60
2022/02/08 02:08:20;;;;;;;0.20;0.10;;;;;;;;;;4147930;28;20107;-60
2022/02/08 02:10:24;;;;;;;0.20;0.20;;;;;;;;;;4147760;28;20144;-60
2022/02/08 02:12:26;;;;;;;0.17;0.00;;;;;;;;;;4147844;28;20111;-60
2022/02/08 02:14:27;;;;;;;0.00;0.00;;;;;;;;;;4149399;28;20057;-60
2022/02/08 02:16:44;;;;;;;0.00;0.00;;;;;;;;;;4147239;28;20190;-60
2022/02/08 02:18:45;;;;;;;0.80;0.20;;;;;;;;;;4149100;28;20660;-62
2022/02/08 02:20:47;;;;;;;0.13;0.10;;;;;;;;;;4147570;28;20054;-60
2022/02/08 02:22:48;;;;;;;0.10;0.10;;;;;;;;;;4147726;28;20053;-60
2022/02/08 02:24:49;;;;;;;0.10;0.08;;;;;;;;;;4147506;28;20065;-59
2022/02/08 02:26:50;;;;;;;0.10;0.10;;;;;;;;;;4148989;28;20054;-59
2022/02/08 02:28:51;;;;;;;0.10;0.10;;;;;;;;;;4147717;28;20521;-60
2022/02/08 02:30:54;;;;;;;0.00;0.00;;;;;;;;;;4147240;28;20069;-59
2022/02/08 02:32:58;;;;;;;0.30;0.10;;;;;;;;;;4148886;28;20054;-60
2022/02/08 02:35:00;;;;;;;0.57;0.17;;;;;;;;;;4148849;28;20062;-59
2022/02/08 02:37:05;;;;;;;0.13;0.13;;;;;;;;;;4148961;28;20149;-60
2022/02/08 02:39:06;;;;;;;0.10;0.10;;;;;;;;;;4147649;28;20057;-61
2022/02/08 02:41:07;;;;;;;0.10;0.10;;;;;;;;;;4147695;28;20050;-60
2022/02/08 02:43:09;;;;;;;0.20;0.17;;;;;;;;;;4147585;28;20099;-59
2022/02/08 02:45:12;;;;;;;0.15;0.10;;;;;;;;;;4147665;28;20061;-60
2022/02/08 02:47:14;;;;;;;0.85;0.13;;;;;;;;;;4148227;28;20350;-60
2022/02/08 02:49:15;;;;;;;0.10;0.03;;;;;;;;;;4148640;28;20062;-60
2022/02/08 02:51:17;;;;;;;0.13;0.10;;;;;;;;;;4147270;28;20513;-59
2022/02/08 02:53:26;;;;;;;0.17;0.10;;;;;;;;;;4147309;28;20057;-59
2022/02/08 02:55:32;;;;;;;0.10;0.10;;;;;;;;;;4147229;28;20531;-60
2022/02/08 02:57:33;;;;;;;0.10;0.10;;;;;;;;;;4147353;28;20054;-59
2022/02/08 02:59:37;;;;;;;0.08;0.08;;;;;;;;;;4147505;28;20058;-59
2022/02/08 03:04:25;;;;;;;0.20;0.20;;;;;;;;;;4147174;28;20088;-59
2022/02/08 03:20:14;;;;;;;0.08;0.08;;;;;;;;;;4146991;28;20085;-59
2022/02/08 03:22:15;;;;;;;0.10;0.10;;;;;;;;;;4147624;28;20112;-60
2022/02/08 03:24:16;;;;;;;0.10;0.10;;;;;;;;;;4146662;28;20100;-60
2022/02/08 03:26:18;;;;;;;1.58;0.10;;;;;;;;;;4146776;28;20057;-60
2022/02/08 03:28:29;;;;;;;0.13;0.10;;;;;;;;;;4147066;28;20061;-61
2022/02/08 03:30:31;;;;;;;0.57;0.20;;;;;;;;;;4146955;28;20050;-60
2022/02/08 03:32:33;;;;;;;0.20;0.10;;;;;;;;;;4146337;28;20099;-60
2022/02/08 03:34:34;;;;;;;0.10;0.10;;;;;;;;;;4148230;28;20053;-60
2022/02/08 03:36:35;;;;;;;0.00;0.00;;;;;;;;;;4146429;28;20114;-59
2022/02/08 03:38:42;;;;;;;0.13;0.10;;;;;;;;;;4147810;28;20054;-60
2022/02/08 03:40:51;;;;;;;0.43;0.20;;;;;;;;;;4130833;28;20062;-60
2022/02/08 03:43:09;;;;;;;0.10;0.10;;;;;;;;;;4147967;28;20112;-58
2022/02/08 03:45:13;;;;;;;0.00;0.00;;;;;;;;;;4147891;28;20057;-60
2022/02/08 03:47:18;;;;;;;0.38;0.20;;;;;;;;;;4146102;28;20054;-60
2022/02/08 03:49:21;;;;;;;0.10;0.10;;;;;;;;;;4146773;28;20061;-60
2022/02/08 03:51:25;;;;;;;0.10;0.10;;;;;;;;;;4146213;28;20064;-60
2022/02/08 03:53:35;;;;;;;0.10;0.10;;;;;;;;;;4146453;28;20104;-59
2022/02/08 03:55:37;;;;;;;0.40;0.10;;;;;;;;;;4146562;28;20084;-58
2022/02/08 03:57:39;;;;;;;0.00;0.00;;;;;;;;;;4146237;28;20054;-59
2022/02/08 03:59:44;;;;;;;0.10;0.10;;;;;;;;;;4146647;28;20062;-59
2022/02/08 04:02:05;;;;;;;0.10;0.10;;;;;;;;;;4145881;28;20104;-59
2022/02/08 04:06:07;;;;;;;0.20;0.10;;;;;;;;;;4147333;28;20069;-59
2022/02/08 04:08:12;;;;;;;0.10;0.10;;;;;;;;;;4147478;28;20490;-60
2022/02/08 04:10:20;;;;;;;0.10;0.05;;;;;;;;;;4147593;28;20049;-59
2022/02/08 04:12:30;;;;;;;0.00;0.00;;;;;;;;;;4147622;28;20058;-59
2022/02/08 04:14:39;;;;;;;0.30;0.10;;;;;;;;;;4147371;28;20485;-59
2022/02/08 04:16:41;;;;;;;0.00;0.00;;;;;;;;;;4146901;28;20485;-59
2022/02/08 04:35:21;;;;;;;0.20;0.10;;;;;;;;;;4147262;28;20060;-60
2022/02/08 04:41:48;;;;;;;0.00;0.00;;;;;;;;;;4147139;28;20060;-60
2022/02/08 04:44:11;;;;;;;0.10;0.10;;;;;;;;;;4147383;28;20050;-59
2022/02/08 04:46:42;;;;;;;0.32;0.20;;;;;;;;;;4146862;28;20088;-60
2022/02/08 04:48:52;;;;;;;0.10;0.10;;;;;;;;;;4145875;28;20432;-59
2022/02/08 04:51:04;;;;;;;0.17;0.10;;;;;;;;;;4146950;28;20058;-59
2022/02/08 04:53:14;;;;;;;0.10;0.10;;;;;;;;;;4147215;28;20076;-60
2022/02/08 04:58:14;;;;;;;0.30;0.25;;;;;;;;;;4146809;28;20054;-59
2022/02/08 05:34:24;;;;;;;0.10;0.10;;;;;;;;;;4146820;28;20054;-59
2022/02/08 05:46:46;;;;;;;0.20;0.20;;;;;;;;;;4149325;28;20595;-61
2022/02/08 05:48:16;;;;;;;0.00;0.00;;;;;;;;;;4148320;28;20054;-60
2022/02/08 05:50:40;;;;;;;0.10;0.10;;;;;;;;;;4149599;28;20512;-60
2022/02/08 05:53:03;;;;;;;0.80;0.25;;;;;;;;;;4150049;28;20441;-61
2022/02/08 05:55:04;;;;;;;0.35;0.10;;;;;;;;;;4149808;28;20057;-60
2022/02/08 05:57:06;;;;;;;0.00;0.00;;;;;;;;;;4148307;28;20156;-60
2022/02/08 05:59:08;;;;;;;0.10;0.10;;;;;;;;;;4149536;28;20173;-60
2022/02/08 06:01:10;;;;;;;0.10;0.10;;;;;;;;;;4138569;28;20453;-60
2022/02/08 06:03:34;;;;;;;0.88;0.10;;;;;;;;;;4131010;28;20062;-59
2022/02/08 06:05:36;;;;;;;0.32;0.10;;;;;;;;;;4129883;28;20113;-60
2022/02/08 06:07:38;;;;;;;0.32;0.15;;;;;;;;;;4131359;28;20058;-60
2022/02/08 06:09:39;;;;;;;0.40;0.10;;;;;;;;;;4131147;28;20062;-59
2022/02/08 06:11:40;;;;;;;0.30;0.13;;;;;;;;;;4131258;28;20108;-59
2022/02/08 06:13:44;;;;;;;0.10;0.10;;;;;;;;;;4129459;28;20171;-59
2022/02/08 06:15:49;;;;;;;0.15;0.10;;;;;;;;;;4129239;28;20384;-60
2022/02/08 06:17:53;;;;;;;0.40;0.32;;;;;;;;;;4130944;28;20468;-59
2022/02/08 06:19:56;;;;;;;0.80;0.20;;;;;;;;;;4131088;28;20121;-60
2022/02/08 06:21:57;;;;;;;0.32;0.20;;;;;;;;;;4131224;28;20066;-59
2022/02/08 06:23:58;;;;;;;0.75;0.20;;;;;;;;;;4131048;28;20101;-59
2022/02/08 06:26:00;;;;;;;2.58;0.20;;;;;;;;;;4130442;28;20057;-59
2022/02/08 06:28:01;;;;;;;2.58;0.40;;;;;;;;;;4131025;28;20108;-60
2022/02/08 06:30:03;;;;;;;0.50;0.20;;;;;;;;;;4145920;28;20107;-59
2022/02/08 06:32:04;;;;;;;1.02;0.30;;;;;;;;;;4130473;28;20407;-59
2022/02/08 06:34:05;;;;;;;0.20;0.20;;;;;;;;;;4130901;28;20100;-62
2022/02/08 06:36:07;;;;;;;0.32;0.10;;;;;;;;;;4130370;28;20122;-58
2022/02/08 06:38:11;;;;;;;0.22;0.17;;;;;;;;;;4130919;28;20081;-59
2022/02/08 06:40:12;;;;;;;2.03;0.43;;;;;;;;;;4145724;28;20104;-59
2022/02/08 06:42:13;;;;;;;2.30;0.30;;;;;;;;;;4145269;28;20517;-59
2022/02/08 06:44:14;;;;;;;1.13;0.20;;;;;;;;;;4146985;28;20142;-59
2022/02/08 06:46:15;;;;;;;0.60;0.28;;;;;;;;;;4146440;28;20108;-59
2022/02/08 06:48:17;;;;;;;0.68;0.30;;;;;;;;;;4144707;28;20054;-60
2022/02/08 06:50:18;;;;;;;1.48;0.20;;;;;;;;;;4138814;28;20416;-59
2022/02/08 06:52:20;;;;;;;0.55;0.20;;;;;;;;;;4139881;28;20076;-60
2022/02/08 06:54:21;;;;;;;2.00;0.20;;;;;;;;;;4139391;28;20068;-63
2022/02/08 06:56:22;;;;;;;0.80;0.50;;;;;;;;;;4136472;28;20057;-59
2022/02/08 06:58:30;;;;;;;0.30;0.13;;;;;;;;;;4139926;28;21319;-61
2022/02/08 07:00:42;;;;;;;0.10;0.10;;;;;;;;;;4134803;28;20054;-60
2022/02/08 07:02:46;;;;;;;0.50;0.30;;;;;;;;;;4153397;28;20630;-58
2022/02/08 07:04:47;;;;;;;1.02;0.30;;;;;;;;;;4145902;28;20520;-60
2022/02/08 07:06:48;;;;;;;0.88;0.20;;;;;;;;;;4147862;28;20387;-60
2022/02/08 07:08:49;;;;;;;1.10;0.30;;;;;;;;;;4136431;28;20163;-60
2022/02/08 07:10:51;;;;;;;0.75;0.47;;;;;;;;;;4135648;28;20796;-60
2022/02/08 07:12:52;;;;;;;1.58;0.30;;;;;;;;;;4142911;28;20058;-60
2022/02/08 07:14:53;;;;;;;0.43;0.30;;;;;;;;;;4141652;28;20107;-60
2022/02/08 07:16:54;;;;;;;2.22;0.22;;;;;;;;;;4139212;28;20054;-59
2022/02/08 07:18:55;;;;;;;2.38;0.20;;;;;;;;;;4138044;28;20065;-59
2022/02/08 07:20:56;;;;;;;0.20;0.20;;;;;;;;;;4139064;28;20053;-59
2022/02/08 07:22:57;;;;;;;0.38;0.20;;;;;;;;;;4142090;28;20496;-60
2022/02/08 07:24:59;;;;;;;0.20;0.10;;;;;;;;;;4143427;28;20115;-60
2022/02/08 07:27:00;;;;;;;0.22;0.22;;;;;;;;;;4142664;28;20547;-59
2022/02/08 07:29:01;;;;;;;1.75;0.38;;;;;;;;;;4141864;28;20066;-60
2022/02/08 07:31:11;;;;;;;0.60;0.22;;;;;;;;;;4141323;28;20054;-60
2022/02/08 07:33:12;;;;;;;2.10;0.30;;;;;;;;;;4141380;28;20062;-61
2022/02/08 07:37:33;;;;;;;0.93;0.20;;;;;;;;;;4142531;28;20424;-60
2022/02/08 07:39:45;;;;;;;0.22;0.17;;;;;;;;;;4139106;28;20407;-61
2022/02/08 07:41:46;;;;;;;1.83;0.28;;;;;;;;;;4135237;28;20105;-61
2022/02/08 07:43:49;;;;;;;2.42;0.28;;;;;;;;;;4145105;28;20565;-61
2022/02/08 07:46:00;;;;;;;0.32;0.20;;;;;;;;;;4143286;28;20496;-61
2022/02/08 07:48:02;;;;;;;0.70;0.20;;;;;;;;;;4143119;28;20056;-61
2022/02/08 07:50:03;;;;;;;1.88;0.30;;;;;;;;;;4143365;28;20275;-61
2022/02/08 07:52:05;;;;;;;0.52;0.32;;;;;;;;;;4147974;28;20057;-60
2022/02/08 07:54:06;;;;;;;0.55;0.22;;;;;;;;;;4147497;28;20057;-61
2022/02/08 07:56:07;;;;;;;0.20;0.10;;;;;;;;;;4140782;28;20064;-61
2022/02/08 07:58:08;;;;;;;0.55;0.20;;;;;;;;;;4144490;28;20058;-61
2022/02/08 08:00:10;;;;;;;0.32;0.20;;;;;;;;;;4145699;28;20065;-60
2022/02/08 08:02:14;;;;;;;0.65;0.20;;;;;;;;;;4141470;28;20080;-61
2022/02/08 08:04:16;;;;;;;0.25;0.13;;;;;;;;;;4142501;28;20069;-60
2022/02/08 08:06:18;;;;;;;0.30;0.20;;;;;;;;;;4136723;28;20119;-60
2022/02/08 08:08:20;;;;;;;0.15;0.13;;;;;;;;;;4146223;28;20058;-61
2022/02/08 08:10:27;;;;;;;1.25;0.20;;;;;;;;;;4146164;28;20049;-60
2022/02/08 08:12:28;;;;;;;0.25;0.20;;;;;;;;;;4145772;28;20761;-62
2022/02/08 08:14:32;;;;;;;0.63;0.20;;;;;;;;;;4135183;28;20570;-61
2022/02/08 08:18:55;;;;;;;0.63;0.20;;;;;;;;;;4136577;28;20429;-60
2022/02/08 08:20:56;;;;;;;0.45;0.28;;;;;;;;;;4135207;28;20062;-61
2022/02/08 08:22:58;;;;;;;0.20;0.10;;;;;;;;;;4143644;28;20069;-61
2022/02/08 08:25:01;;;;;;;0.95;0.25;;;;;;;;;;4134718;28;20132;-60
2022/02/08 08:27:03;;;;;;;0.40;0.28;;;;;;;;;;4134326;28;20064;-61
2022/02/08 08:29:04;;;;;;;0.55;0.28;;;;;;;;;;4127700;28;20056;-61
2022/02/08 08:31:06;;;;;;;0.20;0.20;;;;;;;;;;4134965;28;20469;-60
2022/02/08 08:33:07;;;;;;;0.65;0.20;;;;;;;;;;4131814;28;20093;-60
2022/02/08 08:35:14;;;;;;;0.35;0.22;;;;;;;;;;4140393;28;20128;-60
2022/02/08 08:37:15;;;;;;;0.20;0.20;;;;;;;;;;4135915;28;20054;-61
2022/02/08 08:39:22;;;;;;;2.10;0.22;;;;;;;;;;4145609;28;20480;-60
2022/02/08 08:43:55;;;;;;;0.35;0.20;;;;;;;;;;4141499;28;20422;-60
2022/02/08 08:52:51;;;;;;;0.20;0.10;;;;;;;;;;4141080;28;20085;-60
2022/02/08 08:54:52;;;;;;;0.32;0.25;;;;;;;;;;4137628;28;20049;-61
2022/02/08 08:56:53;;;;;;;0.20;0.20;;;;;;;;;;4137734;28;20057;-61
2022/02/08 08:58:54;;;;;;;0.38;0.25;;;;;;;;;;4140622;28;20088;-61
2022/02/08 09:00:55;;;;;;;0.40;0.20;;;;;;;;;;4138444;28;20104;-60
2022/02/08 09:02:56;;;;;;;0.57;0.10;;;;;;;;;;4139242;28;20079;-61
2022/02/08 09:04:58;;;;;;;2.35;0.20;;;;;;;;;;4132620;28;20057;-62
2022/02/08 09:06:59;;;;;;;0.20;0.20;;;;;;;;;;4143514;28;20054;-60
2022/02/08 09:09:02;;;;;;;0.20;0.13;;;;;;;;;;4140466;28;20541;-61
2022/02/08 09:11:57;;;;;;;0.90;0.20;;;;;;;;;;4140276;28;20054;-60
2022/02/08 09:13:32;;;;;;;0.65;0.28;;;;;;;;;;4142007;28;21898;-60
2022/02/08 09:18:10;;;;;;;0.65;0.20;;;;;;;;;;4136231;28;20522;-59
2022/02/08 09:24:54;;;;;;;0.30;0.10;;;;;;;;;;4140097;28;20135;-61
2022/02/08 09:29:38;;;;;;;0.40;0.17;;;;;;;;;;4139806;28;20650;-60
2022/02/08 09:31:39;;;;;;;0.30;0.20;;;;;;;;;;4145905;28;20104;-61
2022/02/08 09:33:41;;;;;;;0.40;0.20;;;;;;;;;;4140571;28;20061;-60
2022/02/08 09:35:43;;;;;;;0.20;0.20;;;;;;;;;;4136798;28;20064;-61
2022/02/08 09:37:45;;;;;;;0.50;0.30;;;;;;;;;;4139337;28;20055;-61
2022/02/08 09:39:50;;;;;;;1.02;0.20;;;;;;;;;;4135200;28;20112;-61
2022/02/08 09:41:53;;;;;;;2.17;0.22;;;;;;;;;;4137372;28;20112;-61
2022/02/08 09:43:55;;;;;;;0.20;0.10;;;;;;;;;;4140137;28;20072;-60
2022/02/08 09:45:59;;;;;;;0.28;0.10;;;;;;;;;;4138231;28;20128;-61
2022/02/08 09:48:07;;;;;;;0.65;0.38;;;;;;;;;;4138677;28;20408;-62
2022/02/08 09:50:16;;;;;;;0.25;0.20;;;;;;;;;;4139750;28;20066;-60
2022/02/08 09:52:20;;;;;;;0.90;0.50;;;;;;;;;;4134975;28;20058;-60
2022/02/08 09:54:22;;;;;;;2.35;0.50;;;;;;;;;;4139878;28;20453;-60
2022/02/08 09:56:27;;;;;;;0.25;0.25;;;;;;;;;;4140216;28;20081;-60
2022/02/08 09:58:28;;;;;;;0.70;0.10;;;;;;;;;;4138787;28;20168;-61
2022/02/08 10:00:29;;;;;;;0.50;0.22;;;;;;;;;;4132022;28;20062;-61
2022/02/08 10:02:30;;;;;;;0.20;0.20;;;;;;;;;;4135809;28;20108;-61
2022/02/08 10:04:31;;;;;;;0.22;0.20;;;;;;;;;;4138872;28;20054;-60
2022/02/08 10:06:33;;;;;;;0.60;0.30;;;;;;;;;;4141548;28;20101;-60
2022/02/08 10:08:34;;;;;;;0.25;0.20;;;;;;;;;;4139350;28;20563;-61
2022/02/08 10:10:35;;;;;;;0.22;0.10;;;;;;;;;;4144177;28;20093;-61
2022/02/08 10:22:12;;;;;;;0.50;0.25;;;;;;;;;;4133990;28;20072;-61
2022/02/08 10:24:15;;;;;;;0.22;0.20;;;;;;;;;;4133437;28;20173;-60
2022/02/08 10:26:23;;;;;;;0.40;0.20;;;;;;;;;;4141106;28;20069;-60
2022/02/08 10:28:31;;;;;;;1.58;0.20;;;;;;;;;;4141263;28;20065;-63
2022/02/08 10:39:36;;;;;;;0.28;0.28;;;;;;;;;;4139730;28;20120;-61
2022/02/08 10:41:37;;;;;;;0.30;0.10;;;;;;;;;;4140199;28;20061;-59
2022/02/08 10:43:38;;;;;;;0.22;0.20;;;;;;;;;;4144595;28;20191;-60
2022/02/08 10:45:40;;;;;;;0.35;0.20;;;;;;;;;;4143040;28;20058;-60
2022/02/08 10:47:45;;;;;;;0.25;0.20;;;;;;;;;;4145445;28;20106;-61
2022/02/08 10:49:46;;;;;;;0.10;0.10;;;;;;;;;;4142718;28;20069;-60
2022/02/08 10:51:51;;;;;;;0.20;0.10;;;;;;;;;;4139754;28;20425;-60
2022/02/08 10:54:02;;;;;;;0.22;0.20;;;;;;;;;;4140247;28;20113;-61
2022/02/08 10:56:09;;;;;;;0.30;0.20;;;;;;;;;;4139927;28;20061;-61
2022/02/08 10:58:22;;;;;;;0.20;0.20;;;;;;;;;;4144775;28;20104;-60
2022/02/08 11:02:47;;;;;;;0.77;0.28;;;;;;;;;;4135823;28;20057;-59
2022/02/08 11:07:08;;;;;;;0.30;0.17;;;;;;;;;;4142486;28;20053;-60
2022/02/08 11:09:24;;;;;;;0.20;0.17;;;;;;;;;;4143217;28;20096;-60
2022/02/08 11:11:39;;;;;;;0.45;0.28;;;;;;;;;;4138781;28;20057;-60
2022/02/08 11:14:00;;;;;;;0.50;0.20;;;;;;;;;;4142399;28;20061;-60
2022/02/08 11:16:24;;;;;;;0.38;0.30;;;;;;;;;;4148551;28;20391;-60
2022/02/08 11:20:41;;;;;;;0.15;0.15;;;;;;;;;;4142490;28;20096;-60
2022/02/08 11:24:51;;;;;;;0.40;0.20;;;;;;;;;;4144453;28;20543;-62
2022/02/08 11:27:00;;;;;;;0.25;0.20;;;;;;;;;;4148158;28;20111;-60
2022/02/08 11:29:16;;;;;;;0.30;0.20;;;;;;;;;;4139817;28;20066;-60
2022/02/08 11:31:26;;;;;;;0.20;0.20;;;;;;;;;;4142556;28;20054;-60
2022/02/08 11:33:54;;;;;;;0.50;0.35;;;;;;;;;;4143953;28;20073;-60
2022/02/08 11:43:34;;;;;;;0.63;0.22;;;;;;;;;;4143140;28;20115;-61
2022/02/08 11:52:23;;;;;;;0.75;0.38;;;;;;;;;;4142836;28;20061;-61
2022/02/08 11:57:13;;;;;;;0.13;0.13;;;;;;;;;;4134891;28;20108;-61
2022/02/08 12:01:25;;;;;;;2.25;0.20;;;;;;;;;;4130105;28;20066;-60
2022/02/08 12:05:48;;;;;;;0.10;0.10;;;;;;;;;;4138244;28;20065;-61
2022/02/08 12:07:54;;;;;;;2.33;0.30;;;;;;;;;;4151513;28;20534;-61
2022/02/08 12:31:37;;;;;;;1.75;0.20;;;;;;;;;;4140132;28;20484;-60
2022/02/08 12:33:31;;;;;;;0.40;0.20;;;;;;;;;;4141220;28;20108;-59
2022/02/08 12:35:54;;;;;;;0.35;0.30;;;;;;;;;;4142300;28;20050;-60
2022/02/08 12:50:30;;;;;;;0.47;0.30;;;;;;;;;;4138458;28;20112;-60
2022/02/08 12:57:06;;;;;;;0.22;0.20;;;;;;;;;;4144547;28;20096;-59
2022/02/08 13:01:27;;;;;;;0.40;0.20;;;;;;;;;;4145075;28;20061;-59
2022/02/08 13:03:55;;;;;;;0.10;0.10;;;;;;;;;;4140702;28;20074;-60
2022/02/08 13:19:52;;;;;;;0.30;0.20;;;;;;;;;;4143650;28;20487;-61
2022/02/08 14:01:55;;;;;;;0.10;0.10;;;;;;;;;;4140011;28;20488;-61
2022/02/08 14:10:22;;;;;;;0.15;0.10;;;;;;;;;;4142145;28;20058;-60
2022/02/08 14:13:05;;;;;;;0.30;0.20;;;;;;;;;;4151517;28;20064;-60
2022/02/08 14:15:25;;;;;;;0.10;0.10;;;;;;;;;;4139049;28;20049;-61
2022/02/08 14:17:34;;;;;;;0.45;0.17;;;;;;;;;;4135560;28;20468;-61
2022/02/08 14:19:40;;;;;;;0.10;0.10;;;;;;;;;;4139226;28;20528;-61
2022/02/08 14:21:55;;;;;;;0.10;0.10;;;;;;;;;;4142570;28;20466;-60
2022/02/08 14:24:12;;;;;;;1.10;0.30;;;;;;;;;;4141715;28;20053;-60
2022/02/08 14:30:43;;;;;;;0.10;0.10;;;;;;;;;;4138834;28;20830;-61
2022/02/08 14:35:35;;;;;;;0.45;0.20;;;;;;;;;;4141184;28;20631;-61
2022/02/08 15:09:32;;;;;;;0.20;0.13;;;;;;;;;;4136756;28;20054;-60
2022/02/08 15:11:46;;;;;;;0.03;0.03;;;;;;;;;;4137630;28;20517;-60
2022/02/08 15:13:50;;;;;;;0.60;0.20;;;;;;;;;;4137270;28;20148;-59
2022/02/08 15:17:53;;;;;;;0.82;0.20;;;;;;;;;;4137780;28;20563;-60
2022/02/08 15:19:57;;;;;;;0.60;0.10;;;;;;;;;;4139388;28;20092;-60
2022/02/08 15:22:00;;;;;;;0.32;0.10;;;;;;;;;;4139317;28;20072;-60
2022/02/08 15:24:02;;;;;;;0.43;0.28;;;;;;;;;;4139930;28;20054;-60
2022/02/08 15:26:04;;;;;;;0.10;0.10;;;;;;;;;;4139131;28;20525;-60
2022/02/08 15:28:05;;;;;;;0.38;0.10;;;;;;;;;;4139650;28;20073;-60
2022/02/08 15:30:09;;;;;;;0.20;0.10;;;;;;;;;;4135673;28;20113;-60
2022/02/08 15:32:16;;;;;;;0.13;0.13;;;;;;;;;;4131838;28;20109;-60
2022/02/08 15:34:17;;;;;;;0.35;0.20;;;;;;;;;;4140443;28;20061;-60
2022/02/08 15:36:18;;;;;;;0.57;0.20;;;;;;;;;;4142587;28;20070;-59
2022/02/08 15:38:25;;;;;;;0.77;0.10;;;;;;;;;;4142058;28;20115;-59
2022/02/08 15:40:26;;;;;;;0.30;0.22;;;;;;;;;;4139715;28;20068;-60
2022/02/08 15:42:32;;;;;;;0.30;0.20;;;;;;;;;;4139829;28;20071;-60
2022/02/08 15:44:34;;;;;;;0.10;0.10;;;;;;;;;;4141102;28;20100;-60
2022/02/08 15:46:35;;;;;;;0.70;0.20;;;;;;;;;;4140386;28;20596;-59
2022/02/08 15:48:37;;;;;;;0.32;0.10;;;;;;;;;;4137865;28;20104;-61
2022/02/08 15:54:52;;;;;;;0.20;0.10;;;;;;;;;;4141756;28;20057;-60
2022/02/08 16:01:40;;;;;;;0.22;0.15;;;;;;;;;;4137200;28;20104;-60
2022/02/08 16:08:12;;;;;;;1.15;0.20;;;;;;;;;;4140491;28;20496;-59
2022/02/08 16:10:22;;;;;;;0.30;0.20;;;;;;;;;;4136946;28;20087;-61
2022/02/08 16:14:41;;;;;;;0.30;0.20;;;;;;;;;;4138828;28;20054;-61
2022/02/08 16:19:13;;;;;;;0.20;0.20;;;;;;;;;;4139768;28;20127;-61
2022/02/08 16:28:11;;;;;;;0.35;0.20;;;;;;;;;;4138148;28;20061;-60
2022/02/08 16:55:09;;;;;;;0.30;0.17;;;;;;;;;;4141374;28;19944;-60
2022/02/08 16:58:26;;;;;;;1.05;0.20;;;;;;;;;;4145924;28;20063;-59
2022/02/08 16:59:43;;;;;;;0.85;0.30;;;;;;;;;;4139665;28;20589;-60
2022/02/08 17:01:44;;;;;;;0.88;0.30;;;;;;;;;;4145611;28;20100;-61
2022/02/08 17:03:51;;;;;;;0.28;0.22;;;;;;;;;;4145857;28;20448;-62
2022/02/08 17:05:52;;;;;;;0.65;0.30;;;;;;;;;;4145879;28;20077;-60
2022/02/08 17:07:54;;;;;;;1.10;0.30;;;;;;;;;;4146091;28;20096;-60
2022/02/08 17:09:59;;;;;;;1.10;0.20;;;;;;;;;;4145387;28;20057;-60
2022/02/08 17:12:12;;;;;;;0.45;0.32;;;;;;;;;;4141243;28;20050;-60
2022/02/08 17:14:45;;;;;;;1.13;0.63;;;;;;;;;;4145626;28;20131;-60
2022/02/08 17:16:56;;;;;;;0.68;0.28;;;;;;;;;;4144656;28;20057;-60
2022/02/08 17:19:23;;;;;;;0.90;0.10;;;;;;;;;;4144903;28;20100;-58
2022/02/08 17:36:21;;;;;;;1.08;0.32;;;;;;;;;;4144974;28;20108;-60
2022/02/08 17:45:16;;;;;;;;;;;;;;;;;;4131367;28;20070;-60
2022/02/08 17:47:37;;;;;;;0.17;0.13;;;;;;;;;;4130426;28;19930;-61
2022/02/08 17:49:39;;;;;;;0.40;0.20;;;;;;;;;;4130751;28;20116;-60
2022/02/08 17:51:40;;;;;;;0.43;0.20;;;;;;;;;;4130354;28;20112;-61
2022/02/08 17:53:41;;;;;;;0.28;0.17;;;;;;;;;;4130721;28;20461;-60
2022/02/08 17:55:42;;;;;;;1.05;0.20;;;;;;;;;;4130778;28;20065;-60
2022/02/08 17:57:43;;;;;;;0.57;0.17;;;;;;;;;;4130762;28;20744;-60
2022/02/08 17:59:45;;;;;;;3.63;0.32;;;;;;;;;;4130781;28;20104;-60
2022/02/08 18:01:48;;;;;;;0.22;0.13;;;;;;;;;;4130139;28;20066;-60
2022/02/08 18:03:50;;;;;;;0.52;0.10;;;;;;;;;;4130873;28;20054;-61
2022/02/08 18:05:51;;;;;;;0.82;0.20;;;;;;;;;;4141418;28;20112;-60
2022/02/08 18:07:52;;;;;;;0.63;0.20;;;;;;;;;;4147028;28;20140;-61
2022/02/08 18:09:54;;;;;;;0.22;0.20;;;;;;;;;;4147084;28;20571;-60
2022/02/08 18:11:59;;;;;;;0.40;0.20;;;;;;;;;;4146593;28;20434;-61
2022/02/08 18:14:00;;;;;;;0.45;0.20;;;;;;;;;;4146267;28;20164;-60
2022/02/08 18:16:02;;;;;;;0.73;0.10;;;;;;;;;;4146155;28;20076;-60
2022/02/08 18:18:09;;;;;;;1.73;0.30;;;;;;;;;;4146841;28;20054;-61
2022/02/08 18:20:26;;;;;;;0.30;0.15;;;;;;;;;;4146874;28;20085;-61
2022/02/08 18:22:35;;;;;;;0.20;0.10;;;;;;;;;;4145098;28;20136;-60
2022/02/08 18:27:25;;;;;;;0.17;0.10;;;;;;;;;;4146299;28;20640;-60
2022/02/08 19:12:34;;;;;;;1.23;0.10;;;;;;;;;;4146362;28;20504;-60
2022/02/08 19:19:37;;;;;;;0.32;0.20;;;;;;;;;;4147605;28;20382;-61
2022/02/08 19:21:45;;;;;;;0.95;0.40;;;;;;;;;;4147732;28;20061;-61
2022/02/08 19:23:46;;;;;;;0.10;0.10;;;;;;;;;;4147610;28;20061;-61
2022/02/08 19:25:47;;;;;;;0.45;0.25;;;;;;;;;;4147313;28;20472;-60
2022/02/08 19:27:50;;;;;;;0.73;0.30;;;;;;;;;;4130206;28;20054;-60
2022/02/08 19:29:51;;;;;;;0.28;0.10;;;;;;;;;;4147914;28;20050;-61
2022/02/08 19:31:53;;;;;;;0.52;0.30;;;;;;;;;;4146965;28;20050;-61
2022/02/08 19:34:01;;;;;;;1.13;0.40;;;;;;;;;;4147404;28;20053;-60
2022/02/08 19:36:02;;;;;;;0.10;0.10;;;;;;;;;;4147391;28;20100;-60
2022/02/08 19:38:05;;;;;;;1.33;0.22;;;;;;;;;;4147037;28;20077;-60